sensor_id;sensor_type;location;lat;lon;timestamp;P1;durP1;ratioP1;P2;durP2;ratioP2
12177;SDS011;6152;48.728;9.256;2022-10-16T00:00:32;1.48;;;1.33;;
12177;SDS011;6152;48.728;9.256;2022-10-16T00:02:59;2.90;;;1.15;;
12177;SDS011;6152;48.728;9.256;2022-10-16T00:05:27;2.53;;;0.98;;
12177;SDS011;6152;48.728;9.256;2022-10-16T00:07:54;3.00;;;1.42;;
12177;SDS011;6152;48.728;9.256;2022-10-16T00:10:21;2.90;;;1.08;;
12177;SDS011;6152;48.728;9.256;2022-10-16T00:12:47;1.33;;;1.17;;
12177;SDS011;6152;48.728;9.256;2022-10-16T00:15:14;1.50;;;1.10;;
12177;SDS011;6152;48.728;9.256;2022-10-16T00:17:40;2.30;;;1.40;;
12177;SDS011;6152;48.728;9.256;2022-10-16T00:20:07;4.30;;;1.20;;
12177;SDS011;6152;48.728;9.256;2022-10-16T00:22:33;1.08;;;0.98;;
12177;SDS011;6152;48.728;9.256;2022-10-16T00:24:59;1.75;;;1.48;;
12177;SDS011;6152;48.728;9.256;2022-10-16T00:27:25;3.42;;;1.27;;
12177;SDS011;6152;48.728;9.256;2022-10-16T00:29:52;1.55;;;1.38;;
12177;SDS011;6152;48.728;9.256;2022-10-16T00:32:18;3.13;;;1.77;;
12177;SDS011;6152;48.728;9.256;2022-10-16T00:34:45;2.38;;;1.33;;
12177;SDS011;6152;48.728;9.256;2022-10-16T00:37:12;4.53;;;1.83;;
12177;SDS011;6152;48.728;9.256;2022-10-16T00:39:38;3.05;;;1.50;;
12177;SDS011;6152;48.728;9.256;2022-10-16T00:42:04;1.95;;;1.75;;
12177;SDS011;6152;48.728;9.256;2022-10-16T00:44:42;2.00;;;1.58;;
12177;SDS011;6152;48.728;9.256;2022-10-16T00:47:12;3.00;;;1.75;;
12177;SDS011;6152;48.728;9.256;2022-10-16T00:49:42;2.42;;;1.77;;
12177;SDS011;6152;48.728;9.256;2022-10-16T00:52:09;1.55;;;1.45;;
12177;SDS011;6152;48.728;9.256;2022-10-16T00:54:37;4.30;;;1.38;;
12177;SDS011;6152;48.728;9.256;2022-10-16T00:57:04;2.03;;;1.67;;
12177;SDS011;6152;48.728;9.256;2022-10-16T00:59:32;2.58;;;1.65;;
12177;SDS011;6152;48.728;9.256;2022-10-16T01:02:04;2.97;;;1.67;;
12177;SDS011;6152;48.728;9.256;2022-10-16T01:04:33;2.83;;;1.77;;
12177;SDS011;6152;48.728;9.256;2022-10-16T01:12:35;1.85;;;1.40;;
12177;SDS011;6152;48.728;9.256;2022-10-16T01:15:23;1.75;;;1.42;;
12177;SDS011;6152;48.728;9.256;2022-10-16T01:20:45;2.28;;;1.50;;
12177;SDS011;6152;48.728;9.256;2022-10-16T01:28:49;3.17;;;1.60;;
12177;SDS011;6152;48.728;9.256;2022-10-16T01:31:27;3.25;;;1.70;;
12177;SDS011;6152;48.728;9.256;2022-10-16T01:34:00;1.88;;;1.48;;
12177;SDS011;6152;48.728;9.256;2022-10-16T01:36:42;2.10;;;1.90;;
12177;SDS011;6152;48.728;9.256;2022-10-16T01:39:15;1.40;;;1.30;;
12177;SDS011;6152;48.728;9.256;2022-10-16T01:41:49;4.13;;;1.50;;
12177;SDS011;6152;48.728;9.256;2022-10-16T01:44:20;1.52;;;1.42;;
12177;SDS011;6152;48.728;9.256;2022-10-16T01:46:51;3.67;;;1.50;;
12177;SDS011;6152;48.728;9.256;2022-10-16T01:49:19;3.10;;;1.75;;
12177;SDS011;6152;48.728;9.256;2022-10-16T01:51:49;5.57;;;1.30;;
12177;SDS011;6152;48.728;9.256;2022-10-16T01:54:19;1.83;;;1.73;;
12177;SDS011;6152;48.728;9.256;2022-10-16T01:56:48;3.00;;;1.90;;
12177;SDS011;6152;48.728;9.256;2022-10-16T01:59:16;2.90;;;1.45;;
12177;SDS011;6152;48.728;9.256;2022-10-16T02:01:50;1.63;;;1.52;;
12177;SDS011;6152;48.728;9.256;2022-10-16T02:04:22;2.33;;;1.48;;
12177;SDS011;6152;48.728;9.256;2022-10-16T02:06:54;4.10;;;1.42;;
12177;SDS011;6152;48.728;9.256;2022-10-16T02:09:21;1.52;;;1.42;;
12177;SDS011;6152;48.728;9.256;2022-10-16T02:11:47;2.80;;;1.40;;
12177;SDS011;6152;48.728;9.256;2022-10-16T02:14:15;2.28;;;2.08;;
12177;SDS011;6152;48.728;9.256;2022-10-16T02:16:43;2.47;;;2.22;;
12177;SDS011;6152;48.728;9.256;2022-10-16T02:19:11;2.60;;;2.35;;
12177;SDS011;6152;48.728;9.256;2022-10-16T02:21:41;3.35;;;2.03;;
12177;SDS011;6152;48.728;9.256;2022-10-16T02:26:46;1.48;;;1.38;;
12177;SDS011;6152;48.728;9.256;2022-10-16T02:29:27;2.33;;;1.80;;
12177;SDS011;6152;48.728;9.256;2022-10-16T02:31:55;5.85;;;2.05;;
12177;SDS011;6152;48.728;9.256;2022-10-16T02:34:26;3.90;;;2.03;;
12177;SDS011;6152;48.728;9.256;2022-10-16T02:36:55;2.58;;;2.00;;
12177;SDS011;6152;48.728;9.256;2022-10-16T02:39:23;2.45;;;2.22;;
12177;SDS011;6152;48.728;9.256;2022-10-16T02:41:51;5.03;;;2.13;;
12177;SDS011;6152;48.728;9.256;2022-10-16T02:44:17;2.65;;;2.38;;
12177;SDS011;6152;48.728;9.256;2022-10-16T02:46:43;2.20;;;2.00;;
12177;SDS011;6152;48.728;9.256;2022-10-16T02:49:09;2.13;;;2.00;;
12177;SDS011;6152;48.728;9.256;2022-10-16T02:51:35;2.55;;;2.33;;
12177;SDS011;6152;48.728;9.256;2022-10-16T02:54:01;4.35;;;2.67;;
12177;SDS011;6152;48.728;9.256;2022-10-16T02:56:28;2.47;;;2.28;;
12177;SDS011;6152;48.728;9.256;2022-10-16T02:58:55;4.93;;;2.80;;
12177;SDS011;6152;48.728;9.256;2022-10-16T03:01:22;4.80;;;2.28;;
12177;SDS011;6152;48.728;9.256;2022-10-16T03:03:48;2.78;;;2.58;;
12177;SDS011;6152;48.728;9.256;2022-10-16T03:06:15;3.35;;;2.30;;
12177;SDS011;6152;48.728;9.256;2022-10-16T03:08:41;2.47;;;2.22;;
12177;SDS011;6152;48.728;9.256;2022-10-16T03:11:07;5.72;;;3.15;;
12177;SDS011;6152;48.728;9.256;2022-10-16T03:13:33;2.65;;;2.17;;
12177;SDS011;6152;48.728;9.256;2022-10-16T03:16:00;2.65;;;2.40;;
12177;SDS011;6152;48.728;9.256;2022-10-16T03:18:26;2.65;;;2.40;;
12177;SDS011;6152;48.728;9.256;2022-10-16T03:20:52;4.07;;;2.58;;
12177;SDS011;6152;48.728;9.256;2022-10-16T03:23:18;3.47;;;2.17;;
12177;SDS011;6152;48.728;9.256;2022-10-16T03:25:44;2.15;;;2.05;;
12177;SDS011;6152;48.728;9.256;2022-10-16T03:28:10;5.40;;;2.30;;
12177;SDS011;6152;48.728;9.256;2022-10-16T03:30:36;2.40;;;2.20;;
12177;SDS011;6152;48.728;9.256;2022-10-16T03:33:04;3.92;;;2.20;;
12177;SDS011;6152;48.728;9.256;2022-10-16T03:35:31;3.00;;;2.22;;
12177;SDS011;6152;48.728;9.256;2022-10-16T03:37:58;5.55;;;2.20;;
12177;SDS011;6152;48.728;9.256;2022-10-16T03:40:24;3.78;;;1.92;;
12177;SDS011;6152;48.728;9.256;2022-10-16T03:42:50;2.17;;;2.03;;
12177;SDS011;6152;48.728;9.256;2022-10-16T03:45:16;3.38;;;2.30;;
12177;SDS011;6152;48.728;9.256;2022-10-16T03:47:42;2.30;;;2.00;;
12177;SDS011;6152;48.728;9.256;2022-10-16T03:50:08;5.20;;;2.15;;
12177;SDS011;6152;48.728;9.256;2022-10-16T03:52:34;2.65;;;2.15;;
12177;SDS011;6152;48.728;9.256;2022-10-16T03:55:01;3.47;;;2.20;;
12177;SDS011;6152;48.728;9.256;2022-10-16T03:57:27;1.92;;;1.75;;
12177;SDS011;6152;48.728;9.256;2022-10-16T03:59:53;3.42;;;2.13;;
12177;SDS011;6152;48.728;9.256;2022-10-16T04:02:19;5.43;;;2.10;;
12177;SDS011;6152;48.728;9.256;2022-10-16T04:04:45;2.95;;;1.98;;
12177;SDS011;6152;48.728;9.256;2022-10-16T04:07:11;3.22;;;1.90;;
12177;SDS011;6152;48.728;9.256;2022-10-16T04:09:37;1.73;;;1.60;;
12177;SDS011;6152;48.728;9.256;2022-10-16T04:12:03;2.50;;;1.77;;
12177;SDS011;6152;48.728;9.256;2022-10-16T04:14:29;4.32;;;1.95;;
12177;SDS011;6152;48.728;9.256;2022-10-16T04:16:56;2.08;;;1.77;;
12177;SDS011;6152;48.728;9.256;2022-10-16T04:19:22;2.20;;;1.95;;
12177;SDS011;6152;48.728;9.256;2022-10-16T04:21:48;3.17;;;2.03;;
12177;SDS011;6152;48.728;9.256;2022-10-16T04:24:14;4.22;;;1.38;;
12177;SDS011;6152;48.728;9.256;2022-10-16T04:26:40;7.20;;;2.38;;
12177;SDS011;6152;48.728;9.256;2022-10-16T04:29:06;2.25;;;1.95;;
12177;SDS011;6152;48.728;9.256;2022-10-16T04:31:32;3.28;;;1.80;;
12177;SDS011;6152;48.728;9.256;2022-10-16T04:33:59;1.60;;;1.50;;
12177;SDS011;6152;48.728;9.256;2022-10-16T04:36:25;2.80;;;1.88;;
12177;SDS011;6152;48.728;9.256;2022-10-16T04:38:51;2.88;;;2.00;;
12177;SDS011;6152;48.728;9.256;2022-10-16T04:41:17;3.65;;;2.08;;
12177;SDS011;6152;48.728;9.256;2022-10-16T04:43:43;3.03;;;2.05;;
12177;SDS011;6152;48.728;9.256;2022-10-16T04:46:09;3.53;;;2.00;;
12177;SDS011;6152;48.728;9.256;2022-10-16T04:48:35;4.07;;;2.00;;
12177;SDS011;6152;48.728;9.256;2022-10-16T04:51:01;2.38;;;1.83;;
12177;SDS011;6152;48.728;9.256;2022-10-16T04:53:28;2.58;;;1.92;;
12177;SDS011;6152;48.728;9.256;2022-10-16T04:55:54;2.72;;;2.38;;
12177;SDS011;6152;48.728;9.256;2022-10-16T04:58:21;2.70;;;2.30;;
12177;SDS011;6152;48.728;9.256;2022-10-16T05:00:47;3.10;;;2.28;;
12177;SDS011;6152;48.728;9.256;2022-10-16T05:03:13;3.00;;;2.33;;
12177;SDS011;6152;48.728;9.256;2022-10-16T05:05:43;2.30;;;1.88;;
12177;SDS011;6152;48.728;9.256;2022-10-16T05:08:11;2.67;;;1.88;;
12177;SDS011;6152;48.728;9.256;2022-10-16T05:10:38;4.20;;;1.92;;
12177;SDS011;6152;48.728;9.256;2022-10-16T05:13:06;4.28;;;2.30;;
12177;SDS011;6152;48.728;9.256;2022-10-16T05:15:32;1.92;;;1.83;;
12177;SDS011;6152;48.728;9.256;2022-10-16T05:17:58;4.47;;;2.70;;
12177;SDS011;6152;48.728;9.256;2022-10-16T05:20:24;2.35;;;2.15;;
12177;SDS011;6152;48.728;9.256;2022-10-16T05:22:51;4.85;;;2.35;;
12177;SDS011;6152;48.728;9.256;2022-10-16T05:25:17;2.28;;;2.13;;
12177;SDS011;6152;48.728;9.256;2022-10-16T05:27:43;4.97;;;2.67;;
12177;SDS011;6152;48.728;9.256;2022-10-16T05:30:12;2.63;;;2.42;;
12177;SDS011;6152;48.728;9.256;2022-10-16T05:32:38;7.05;;;2.30;;
12177;SDS011;6152;48.728;9.256;2022-10-16T05:35:04;1.88;;;1.77;;
12177;SDS011;6152;48.728;9.256;2022-10-16T05:37:31;3.80;;;2.42;;
12177;SDS011;6152;48.728;9.256;2022-10-16T05:39:57;5.05;;;2.50;;
12177;SDS011;6152;48.728;9.256;2022-10-16T05:42:24;4.85;;;2.08;;
12177;SDS011;6152;48.728;9.256;2022-10-16T05:44:50;2.67;;;2.35;;
12177;SDS011;6152;48.728;9.256;2022-10-16T05:47:16;4.25;;;2.28;;
12177;SDS011;6152;48.728;9.256;2022-10-16T05:49:42;4.28;;;2.00;;
12177;SDS011;6152;48.728;9.256;2022-10-16T05:52:08;3.75;;;2.17;;
12177;SDS011;6152;48.728;9.256;2022-10-16T05:54:34;3.33;;;2.13;;
12177;SDS011;6152;48.728;9.256;2022-10-16T05:57:00;2.42;;;2.22;;
12177;SDS011;6152;48.728;9.256;2022-10-16T05:59:27;3.67;;;2.00;;
12177;SDS011;6152;48.728;9.256;2022-10-16T06:01:53;2.42;;;2.22;;
12177;SDS011;6152;48.728;9.256;2022-10-16T06:04:19;2.13;;;1.92;;
12177;SDS011;6152;48.728;9.256;2022-10-16T06:06:45;3.55;;;1.67;;
12177;SDS011;6152;48.728;9.256;2022-10-16T06:09:11;3.63;;;2.22;;
12177;SDS011;6152;48.728;9.256;2022-10-16T06:11:37;3.25;;;2.25;;
12177;SDS011;6152;48.728;9.256;2022-10-16T06:14:03;2.72;;;2.05;;
12177;SDS011;6152;48.728;9.256;2022-10-16T06:16:32;2.78;;;1.88;;
12177;SDS011;6152;48.728;9.256;2022-10-16T06:19:00;2.50;;;2.10;;
12177;SDS011;6152;48.728;9.256;2022-10-16T06:21:26;2.50;;;2.17;;
12177;SDS011;6152;48.728;9.256;2022-10-16T06:23:55;3.13;;;2.10;;
12177;SDS011;6152;48.728;9.256;2022-10-16T06:26:23;2.60;;;1.58;;
12177;SDS011;6152;48.728;9.256;2022-10-16T06:28:50;2.63;;;1.70;;
12177;SDS011;6152;48.728;9.256;2022-10-16T06:31:18;1.88;;;1.67;;
12177;SDS011;6152;48.728;9.256;2022-10-16T06:33:44;3.33;;;1.75;;
12177;SDS011;6152;48.728;9.256;2022-10-16T06:36:12;7.15;;;1.92;;
12177;SDS011;6152;48.728;9.256;2022-10-16T06:38:40;3.10;;;1.80;;
12177;SDS011;6152;48.728;9.256;2022-10-16T06:41:08;2.58;;;1.75;;
12177;SDS011;6152;48.728;9.256;2022-10-16T06:43:37;6.38;;;2.05;;
12177;SDS011;6152;48.728;9.256;2022-10-16T06:46:04;2.17;;;1.45;;
12177;SDS011;6152;48.728;9.256;2022-10-16T06:48:32;2.30;;;1.70;;
12177;SDS011;6152;48.728;9.256;2022-10-16T06:51:00;1.35;;;1.25;;
12177;SDS011;6152;48.728;9.256;2022-10-16T06:53:29;1.75;;;1.30;;
12177;SDS011;6152;48.728;9.256;2022-10-16T06:55:57;3.90;;;1.40;;
12177;SDS011;6152;48.728;9.256;2022-10-16T06:58:31;1.52;;;1.40;;
12177;SDS011;6152;48.728;9.256;2022-10-16T07:00:57;1.95;;;1.77;;
12177;SDS011;6152;48.728;9.256;2022-10-16T07:03:23;4.70;;;1.67;;
12177;SDS011;6152;48.728;9.256;2022-10-16T07:05:49;2.78;;;1.65;;
12177;SDS011;6152;48.728;9.256;2022-10-16T07:08:15;2.35;;;1.52;;
12177;SDS011;6152;48.728;9.256;2022-10-16T07:10:41;3.30;;;1.45;;
12177;SDS011;6152;48.728;9.256;2022-10-16T07:13:07;1.73;;;1.50;;
12177;SDS011;6152;48.728;9.256;2022-10-16T07:15:33;1.80;;;1.15;;
12177;SDS011;6152;48.728;9.256;2022-10-16T07:18:00;2.17;;;1.45;;
12177;SDS011;6152;48.728;9.256;2022-10-16T07:20:26;1.60;;;1.40;;
12177;SDS011;6152;48.728;9.256;2022-10-16T07:22:52;2.55;;;1.38;;
12177;SDS011;6152;48.728;9.256;2022-10-16T07:25:18;2.65;;;1.45;;
12177;SDS011;6152;48.728;9.256;2022-10-16T07:27:44;3.50;;;1.50;;
12177;SDS011;6152;48.728;9.256;2022-10-16T07:30:10;6.38;;;1.70;;
12177;SDS011;6152;48.728;9.256;2022-10-16T07:32:36;2.25;;;1.25;;
12177;SDS011;6152;48.728;9.256;2022-10-16T07:35:03;1.67;;;1.40;;
12177;SDS011;6152;48.728;9.256;2022-10-16T07:37:30;1.63;;;1.33;;
12177;SDS011;6152;48.728;9.256;2022-10-16T07:39:56;1.08;;;1.08;;
12177;SDS011;6152;48.728;9.256;2022-10-16T07:42:22;2.35;;;1.55;;
12177;SDS011;6152;48.728;9.256;2022-10-16T07:44:48;2.50;;;1.23;;
12177;SDS011;6152;48.728;9.256;2022-10-16T07:47:14;5.30;;;1.08;;
12177;SDS011;6152;48.728;9.256;2022-10-16T07:49:40;1.63;;;1.38;;
12177;SDS011;6152;48.728;9.256;2022-10-16T07:52:06;4.93;;;1.70;;
12177;SDS011;6152;48.728;9.256;2022-10-16T07:54:33;2.50;;;1.27;;
12177;SDS011;6152;48.728;9.256;2022-10-16T07:56:59;3.10;;;1.63;;
12177;SDS011;6152;48.728;9.256;2022-10-16T07:59:25;2.92;;;2.03;;
12177;SDS011;6152;48.728;9.256;2022-10-16T08:01:51;3.00;;;1.83;;
12177;SDS011;6152;48.728;9.256;2022-10-16T08:04:17;2.50;;;2.03;;
12177;SDS011;6152;48.728;9.256;2022-10-16T08:06:43;4.70;;;2.30;;
12177;SDS011;6152;48.728;9.256;2022-10-16T08:09:09;2.03;;;1.90;;
12177;SDS011;6152;48.728;9.256;2022-10-16T08:11:35;3.00;;;1.90;;
12177;SDS011;6152;48.728;9.256;2022-10-16T08:14:02;3.45;;;1.95;;
12177;SDS011;6152;48.728;9.256;2022-10-16T08:16:28;3.78;;;2.05;;
12177;SDS011;6152;48.728;9.256;2022-10-16T08:18:54;2.30;;;2.10;;
12177;SDS011;6152;48.728;9.256;2022-10-16T08:21:21;3.13;;;2.83;;
12177;SDS011;6152;48.728;9.256;2022-10-16T08:23:48;2.85;;;2.55;;
12177;SDS011;6152;48.728;9.256;2022-10-16T08:26:15;2.83;;;2.63;;
12177;SDS011;6152;48.728;9.256;2022-10-16T08:28:41;2.28;;;2.05;;
12177;SDS011;6152;48.728;9.256;2022-10-16T08:33:34;4.35;;;1.98;;
12177;SDS011;6152;48.728;9.256;2022-10-16T08:36:02;3.22;;;1.60;;
12177;SDS011;6152;48.728;9.256;2022-10-16T08:38:29;2.88;;;1.65;;
12177;SDS011;6152;48.728;9.256;2022-10-16T08:44:10;3.95;;;1.50;;
12177;SDS011;6152;48.728;9.256;2022-10-16T08:46:47;2.55;;;1.40;;
12177;SDS011;6152;48.728;9.256;2022-10-16T08:49:26;2.78;;;1.17;;
12177;SDS011;6152;48.728;9.256;2022-10-16T08:51:55;1.88;;;1.08;;
12177;SDS011;6152;48.728;9.256;2022-10-16T08:56:56;1.70;;;1.17;;
12177;SDS011;6152;48.728;9.256;2022-10-16T08:59:34;1.20;;;1.05;;
12177;SDS011;6152;48.728;9.256;2022-10-16T09:02:00;2.65;;;1.02;;
12177;SDS011;6152;48.728;9.256;2022-10-16T09:12:22;2.30;;;1.25;;
12177;SDS011;6152;48.728;9.256;2022-10-16T09:20:34;3.25;;;1.17;;
12177;SDS011;6152;48.728;9.256;2022-10-16T09:25:30;2.15;;;1.25;;
12177;SDS011;6152;48.728;9.256;2022-10-16T09:27:57;5.25;;;1.67;;
12177;SDS011;6152;48.728;9.256;2022-10-16T09:30:25;1.50;;;1.40;;
12177;SDS011;6152;48.728;9.256;2022-10-16T09:32:54;2.05;;;1.73;;
12177;SDS011;6152;48.728;9.256;2022-10-16T09:35:26;1.20;;;1.10;;
12177;SDS011;6152;48.728;9.256;2022-10-16T09:38:20;4.30;;;1.60;;
12177;SDS011;6152;48.728;9.256;2022-10-16T09:40:54;2.47;;;1.10;;
12177;SDS011;6152;48.728;9.256;2022-10-16T09:46:04;1.00;;;0.88;;
12177;SDS011;6152;48.728;9.256;2022-10-16T09:48:46;1.00;;;0.90;;
12177;SDS011;6152;48.728;9.256;2022-10-16T09:51:33;2.05;;;0.73;;
12177;SDS011;6152;48.728;9.256;2022-10-16T09:54:11;0.70;;;0.55;;
12177;SDS011;6152;48.728;9.256;2022-10-16T09:56:40;0.50;;;0.50;;
12177;SDS011;6152;48.728;9.256;2022-10-16T10:01:50;0.35;;;0.35;;
12177;SDS011;6152;48.728;9.256;2022-10-16T10:04:18;0.40;;;0.40;;
12177;SDS011;6152;48.728;9.256;2022-10-16T10:06:53;0.52;;;0.47;;
12177;SDS011;6152;48.728;9.256;2022-10-16T10:12:19;1.05;;;0.50;;
12177;SDS011;6152;48.728;9.256;2022-10-16T10:14:49;1.25;;;0.40;;
12177;SDS011;6152;48.728;9.256;2022-10-16T10:17:18;0.85;;;0.70;;
12177;SDS011;6152;48.728;9.256;2022-10-16T10:20:15;1.98;;;0.70;;
12177;SDS011;6152;48.728;9.256;2022-10-16T10:22:56;2.25;;;0.60;;
12177;SDS011;6152;48.728;9.256;2022-10-16T10:28:43;1.35;;;0.55;;
12177;SDS011;6152;48.728;9.256;2022-10-16T10:31:21;0.95;;;0.50;;
12177;SDS011;6152;48.728;9.256;2022-10-16T10:34:08;2.00;;;0.52;;
12177;SDS011;6152;48.728;9.256;2022-10-16T10:36:39;1.70;;;0.40;;
12177;SDS011;6152;48.728;9.256;2022-10-16T10:47:52;0.63;;;0.40;;
12177;SDS011;6152;48.728;9.256;2022-10-16T10:53:35;0.63;;;0.60;;
12177;SDS011;6152;48.728;9.256;2022-10-16T10:58:50;3.40;;;0.45;;
12177;SDS011;6152;48.728;9.256;2022-10-16T11:01:29;0.95;;;0.40;;
12177;SDS011;6152;48.728;9.256;2022-10-16T11:04:20;2.08;;;0.38;;
12177;SDS011;6152;48.728;9.256;2022-10-16T11:09:25;0.50;;;0.50;;
12177;SDS011;6152;48.728;9.256;2022-10-16T11:18:05;1.55;;;0.50;;
12177;SDS011;6152;48.728;9.256;2022-10-16T11:20:52;0.70;;;0.40;;
12177;SDS011;6152;48.728;9.256;2022-10-16T11:23:30;0.50;;;0.50;;
12177;SDS011;6152;48.728;9.256;2022-10-16T11:26:30;0.40;;;0.40;;
12177;SDS011;6152;48.728;9.256;2022-10-16T11:28:59;4.10;;;0.77;;
12177;SDS011;6152;48.728;9.256;2022-10-16T11:31:34;0.43;;;0.43;;
12177;SDS011;6152;48.728;9.256;2022-10-16T11:34:50;3.60;;;0.50;;
12177;SDS011;6152;48.728;9.256;2022-10-16T11:39:43;0.63;;;0.57;;
12177;SDS011;6152;48.728;9.256;2022-10-16T11:42:22;0.82;;;0.70;;
12177;SDS011;6152;48.728;9.256;2022-10-16T11:47:57;0.63;;;0.32;;
12177;SDS011;6152;48.728;9.256;2022-10-16T11:56:16;0.50;;;0.30;;
12177;SDS011;6152;48.728;9.256;2022-10-16T11:58:49;0.50;;;0.50;;
12177;SDS011;6152;48.728;9.256;2022-10-16T12:01:28;0.50;;;0.50;;
12177;SDS011;6152;48.728;9.256;2022-10-16T12:04:17;0.40;;;0.40;;
12177;SDS011;6152;48.728;9.256;2022-10-16T12:07:12;0.68;;;0.50;;
12177;SDS011;6152;48.728;9.256;2022-10-16T12:09:47;0.47;;;0.47;;
12177;SDS011;6152;48.728;9.256;2022-10-16T12:12:37;0.70;;;0.70;;
12177;SDS011;6152;48.728;9.256;2022-10-16T12:15:21;1.55;;;0.68;;
12177;SDS011;6152;48.728;9.256;2022-10-16T12:17:49;1.10;;;0.57;;
12177;SDS011;6152;48.728;9.256;2022-10-16T12:22:52;0.60;;;0.60;;
12177;SDS011;6152;48.728;9.256;2022-10-16T12:30:40;0.63;;;0.63;;
12177;SDS011;6152;48.728;9.256;2022-10-16T12:33:19;1.17;;;0.50;;
12177;SDS011;6152;48.728;9.256;2022-10-16T12:35:59;1.35;;;0.63;;
12177;SDS011;6152;48.728;9.256;2022-10-16T12:38:35;0.50;;;0.50;;
12177;SDS011;6152;48.728;9.256;2022-10-16T12:41:11;0.82;;;0.60;;
12177;SDS011;6152;48.728;9.256;2022-10-16T12:43:46;1.23;;;0.68;;
12177;SDS011;6152;48.728;9.256;2022-10-16T12:48:40;0.40;;;0.40;;
12177;SDS011;6152;48.728;9.256;2022-10-16T12:51:19;3.50;;;0.60;;
12177;SDS011;6152;48.728;9.256;2022-10-16T12:53:46;0.70;;;0.60;;
12177;SDS011;6152;48.728;9.256;2022-10-16T12:59:28;0.47;;;0.47;;
12177;SDS011;6152;48.728;9.256;2022-10-16T13:05:10;0.73;;;0.50;;
12177;SDS011;6152;48.728;9.256;2022-10-16T13:11:08;1.95;;;0.50;;
12177;SDS011;6152;48.728;9.256;2022-10-16T13:22:27;1.20;;;0.50;;
12177;SDS011;6152;48.728;9.256;2022-10-16T13:25:54;4.18;;;0.55;;
12177;SDS011;6152;48.728;9.256;2022-10-16T13:28:06;2.40;;;0.70;;
12177;SDS011;6152;48.728;9.256;2022-10-16T13:30:41;0.60;;;0.60;;
12177;SDS011;6152;48.728;9.256;2022-10-16T13:35:51;0.73;;;0.50;;
12177;SDS011;6152;48.728;9.256;2022-10-16T13:38:22;0.60;;;0.60;;
12177;SDS011;6152;48.728;9.256;2022-10-16T13:40:51;1.70;;;0.60;;
12177;SDS011;6152;48.728;9.256;2022-10-16T13:43:23;0.63;;;0.63;;
12177;SDS011;6152;48.728;9.256;2022-10-16T13:46:25;1.15;;;0.73;;
12177;SDS011;6152;48.728;9.256;2022-10-16T13:48:58;0.95;;;0.80;;
12177;SDS011;6152;48.728;9.256;2022-10-16T13:51:26;0.80;;;0.70;;
12177;SDS011;6152;48.728;9.256;2022-10-16T13:53:54;1.63;;;0.60;;
12177;SDS011;6152;48.728;9.256;2022-10-16T13:56:22;1.30;;;0.70;;
12177;SDS011;6152;48.728;9.256;2022-10-16T13:59:00;1.05;;;0.60;;
12177;SDS011;6152;48.728;9.256;2022-10-16T14:01:40;1.63;;;0.77;;
12177;SDS011;6152;48.728;9.256;2022-10-16T14:04:09;2.83;;;0.95;;
12177;SDS011;6152;48.728;9.256;2022-10-16T14:06:40;2.63;;;0.82;;
12177;SDS011;6152;48.728;9.256;2022-10-16T14:11:49;1.38;;;0.80;;
12177;SDS011;6152;48.728;9.256;2022-10-16T14:14:20;2.55;;;1.00;;
12177;SDS011;6152;48.728;9.256;2022-10-16T14:16:47;0.95;;;0.50;;
12177;SDS011;6152;48.728;9.256;2022-10-16T14:19:24;1.63;;;0.77;;
12177;SDS011;6152;48.728;9.256;2022-10-16T14:21:52;1.02;;;0.68;;
12177;SDS011;6152;48.728;9.256;2022-10-16T14:24:34;2.03;;;0.75;;
12177;SDS011;6152;48.728;9.256;2022-10-16T14:27:01;2.42;;;0.60;;
12177;SDS011;6152;48.728;9.256;2022-10-16T14:29:47;0.85;;;0.80;;
12177;SDS011;6152;48.728;9.256;2022-10-16T14:32:20;3.42;;;0.80;;
12177;SDS011;6152;48.728;9.256;2022-10-16T14:34:52;0.82;;;0.80;;
12177;SDS011;6152;48.728;9.256;2022-10-16T14:39:49;1.63;;;0.90;;
12177;SDS011;6152;48.728;9.256;2022-10-16T14:42:17;3.42;;;0.95;;
12177;SDS011;6152;48.728;9.256;2022-10-16T14:44:46;2.55;;;0.90;;
12177;SDS011;6152;48.728;9.256;2022-10-16T14:47:15;3.80;;;0.90;;
12177;SDS011;6152;48.728;9.256;2022-10-16T14:49:47;2.35;;;0.88;;
12177;SDS011;6152;48.728;9.256;2022-10-16T14:52:13;1.05;;;0.90;;
12177;SDS011;6152;48.728;9.256;2022-10-16T14:54:40;1.10;;;1.00;;
12177;SDS011;6152;48.728;9.256;2022-10-16T14:57:13;2.92;;;1.20;;
12177;SDS011;6152;48.728;9.256;2022-10-16T14:59:43;1.65;;;0.90;;
12177;SDS011;6152;48.728;9.256;2022-10-16T15:02:29;1.20;;;1.00;;
12177;SDS011;6152;48.728;9.256;2022-10-16T15:04:56;1.77;;;1.00;;
12177;SDS011;6152;48.728;9.256;2022-10-16T15:07:26;1.40;;;1.10;;
12177;SDS011;6152;48.728;9.256;2022-10-16T15:09:52;1.38;;;1.20;;
12177;SDS011;6152;48.728;9.256;2022-10-16T15:12:19;2.58;;;1.50;;
12177;SDS011;6152;48.728;9.256;2022-10-16T15:14:45;2.65;;;0.98;;
12177;SDS011;6152;48.728;9.256;2022-10-16T15:17:11;2.65;;;1.48;;
12177;SDS011;6152;48.728;9.256;2022-10-16T15:19:37;1.15;;;1.00;;
12177;SDS011;6152;48.728;9.256;2022-10-16T15:22:03;1.13;;;0.80;;
12177;SDS011;6152;48.728;9.256;2022-10-16T15:24:29;3.03;;;0.90;;
12177;SDS011;6152;48.728;9.256;2022-10-16T15:26:56;1.15;;;1.00;;
12177;SDS011;6152;48.728;9.256;2022-10-16T15:29:22;1.58;;;1.15;;
12177;SDS011;6152;48.728;9.256;2022-10-16T15:31:48;2.25;;;0.80;;
12177;SDS011;6152;48.728;9.256;2022-10-16T15:34:14;1.30;;;0.90;;
12177;SDS011;6152;48.728;9.256;2022-10-16T15:36:41;1.50;;;0.90;;
12177;SDS011;6152;48.728;9.256;2022-10-16T15:39:12;1.15;;;1.15;;
12177;SDS011;6152;48.728;9.256;2022-10-16T15:41:44;1.20;;;1.05;;
12177;SDS011;6152;48.728;9.256;2022-10-16T15:44:15;2.25;;;1.25;;
12177;SDS011;6152;48.728;9.256;2022-10-16T15:46:42;1.50;;;1.20;;
12177;SDS011;6152;48.728;9.256;2022-10-16T15:49:08;2.75;;;1.20;;
12177;SDS011;6152;48.728;9.256;2022-10-16T15:51:39;0.90;;;0.85;;
12177;SDS011;6152;48.728;9.256;2022-10-16T15:54:07;2.17;;;0.95;;
12177;SDS011;6152;48.728;9.256;2022-10-16T15:56:33;1.25;;;1.15;;
12177;SDS011;6152;48.728;9.256;2022-10-16T15:59:01;1.92;;;1.17;;
12177;SDS011;6152;48.728;9.256;2022-10-16T16:01:31;3.58;;;1.10;;
12177;SDS011;6152;48.728;9.256;2022-10-16T16:03:59;1.33;;;1.10;;
12177;SDS011;6152;48.728;9.256;2022-10-16T16:06:25;1.23;;;0.93;;
12177;SDS011;6152;48.728;9.256;2022-10-16T16:08:52;2.05;;;0.90;;
12177;SDS011;6152;48.728;9.256;2022-10-16T16:11:18;2.88;;;1.10;;
12177;SDS011;6152;48.728;9.256;2022-10-16T16:13:45;3.50;;;1.00;;
12177;SDS011;6152;48.728;9.256;2022-10-16T16:16:14;2.72;;;1.13;;
12177;SDS011;6152;48.728;9.256;2022-10-16T16:18:41;1.35;;;0.95;;
12177;SDS011;6152;48.728;9.256;2022-10-16T16:21:08;1.08;;;1.08;;
12177;SDS011;6152;48.728;9.256;2022-10-16T16:23:36;3.90;;;1.48;;
12177;SDS011;6152;48.728;9.256;2022-10-16T16:26:03;4.53;;;1.30;;
12177;SDS011;6152;48.728;9.256;2022-10-16T16:28:38;3.70;;;1.20;;
12177;SDS011;6152;48.728;9.256;2022-10-16T16:31:05;1.20;;;0.85;;
12177;SDS011;6152;48.728;9.256;2022-10-16T16:33:31;1.63;;;1.00;;
12177;SDS011;6152;48.728;9.256;2022-10-16T16:35:58;1.95;;;1.25;;
12177;SDS011;6152;48.728;9.256;2022-10-16T16:38:26;3.55;;;1.20;;
12177;SDS011;6152;48.728;9.256;2022-10-16T16:40:53;3.90;;;1.58;;
12177;SDS011;6152;48.728;9.256;2022-10-16T16:43:22;3.70;;;2.20;;
12177;SDS011;6152;48.728;9.256;2022-10-16T16:45:52;3.53;;;2.28;;
12177;SDS011;6152;48.728;9.256;2022-10-16T16:48:22;3.22;;;2.08;;
12177;SDS011;6152;48.728;9.256;2022-10-16T16:50:48;3.40;;;2.40;;
12177;SDS011;6152;48.728;9.256;2022-10-16T16:53:14;5.78;;;2.72;;
12177;SDS011;6152;48.728;9.256;2022-10-16T16:55:40;4.65;;;3.50;;
12177;SDS011;6152;48.728;9.256;2022-10-16T16:58:06;3.28;;;2.97;;
12177;SDS011;6152;48.728;9.256;2022-10-16T17:00:33;9.18;;;3.50;;
12177;SDS011;6152;48.728;9.256;2022-10-16T17:02:59;5.07;;;3.38;;
12177;SDS011;6152;48.728;9.256;2022-10-16T17:05:25;6.10;;;4.03;;
12177;SDS011;6152;48.728;9.256;2022-10-16T17:07:51;7.05;;;4.18;;
12177;SDS011;6152;48.728;9.256;2022-10-16T17:10:17;6.47;;;4.15;;
12177;SDS011;6152;48.728;9.256;2022-10-16T17:12:43;8.50;;;4.22;;
12177;SDS011;6152;48.728;9.256;2022-10-16T17:15:09;7.60;;;4.45;;
12177;SDS011;6152;48.728;9.256;2022-10-16T17:17:35;4.85;;;4.28;;